Time;durP1;ratioP1;P1;durP2;ratioP2;P2;SDS_P1;SDS_P2;PMS_P1;PMS_P2;Temp;Humidity;BMP_temperature;BMP_pressure;BME280_temperature;BME280_humidity;BME280_pressure;Samples;Min_cycle;Max_cycle;Signal;HPM_P1;HPM_P2
2021/12/25 00:00:52;;;;;;;15.77;8.38;;;1.70;99.40;;;;;;5037365;28;20029;-70
2021/12/25 00:03:18;;;;;;;39.75;28.90;;;1.70;99.60;;;;;;5044289;28;20048;-70
2021/12/25 00:05:48;;;;;;;16.42;9.63;;;1.70;99.90;;;;;;5050358;28;20037;-67
2021/12/25 00:08:14;;;;;;;13.57;7.40;;;1.80;99.70;;;;;;5034076;28;20025;-68
2021/12/25 00:10:39;;;;;;;32.92;25.20;;;1.80;99.90;;;;;;5045142;28;20075;-70
2021/12/25 00:13:05;;;;;;;31.92;23.75;;;1.80;99.90;;;;;;5038702;28;20081;-69
2021/12/25 00:15:31;;;;;;;16.60;8.00;;;1.90;99.90;;;;;;5041709;28;20025;-70
2021/12/25 00:17:57;;;;;;;17.55;10.13;;;1.90;99.60;;;;;;5043564;28;20057;-69
2021/12/25 00:20:22;;;;;;;9.40;7.22;;;1.90;99.80;;;;;;5037511;28;20128;-70
2021/12/25 00:22:48;;;;;;;13.52;6.85;;;2.00;99.90;;;;;;5036460;28;20045;-67
2021/12/25 00:25:14;;;;;;;20.73;10.60;;;2.00;99.80;;;;;;5037686;28;20438;-73
2021/12/25 00:28:05;;;;;;;17.95;10.90;;;1.90;99.90;;;;;;5041652;28;20459;-70
2021/12/25 00:30:41;;;;;;;22.42;13.07;;;2.00;99.90;;;;;;5041363;28;20048;-71
2021/12/25 00:33:31;;;;;;;19.58;9.75;;;2.00;99.90;;;;;;5044784;28;20025;-69
2021/12/25 00:35:53;;;;;;;29.73;12.85;;;2.00;99.90;;;;;;5042227;28;20086;-71
2021/12/25 00:38:18;;;;;;;42.42;16.83;;;2.00;99.90;;;;;;5048301;28;20467;-71
2021/12/25 00:40:44;;;;;;;37.35;14.52;;;2.10;99.80;;;;;;5036710;28;20055;-68
2021/12/25 00:43:09;;;;;;;43.58;31.60;;;2.10;99.80;;;;;;5035731;28;20053;-70
2021/12/25 00:45:35;;;;;;;30.90;14.88;;;2.10;99.90;;;;;;5039244;28;20439;-70
2021/12/25 00:48:01;;;;;;;27.38;13.77;;;2.20;99.20;;;;;;5047291;28;20041;-70
2021/12/25 00:50:26;;;;;;;34.72;16.45;;;2.20;99.00;;;;;;5035861;28;20045;-70
2021/12/25 00:52:52;;;;;;;64.30;42.53;;;2.20;98.90;;;;;;5040066;28;20036;-70
2021/12/25 00:55:18;;;;;;;40.30;17.70;;;2.20;99.10;;;;;;5038400;28;20079;-70
2021/12/25 00:57:43;;;;;;;22.05;12.32;;;2.20;98.50;;;;;;5049512;28;20059;-68
2021/12/25 01:00:12;;;;;;;81.78;48.72;;;2.20;98.60;;;;;;5044177;28;20068;-72
2021/12/25 01:02:40;;;;;;;24.02;12.63;;;2.20;99.50;;;;;;5040632;28;20548;-70
2021/12/25 01:05:07;;;;;;;21.63;10.88;;;2.20;99.20;;;;;;5037626;28;20029;-69
2021/12/25 01:07:34;;;;;;;15.45;9.18;;;2.10;99.30;;;;;;5033238;28;20365;-73
2021/12/25 01:10:03;;;;;;;36.78;27.92;;;2.10;99.70;;;;;;5033146;28;20033;-70
2021/12/25 01:12:35;;;;;;;14.43;7.65;;;2.10;99.90;;;;;;5044145;28;20045;-69
2021/12/25 01:15:04;;;;;;;33.88;26.05;;;2.10;99.90;;;;;;5046926;28;20124;-71
2021/12/25 01:30:27;;;;;;;16.95;8.52;;;2.20;99.90;;;;;;5041181;28;20025;-72
2021/12/25 01:33:21;;;;;;;28.73;16.45;;;2.30;99.90;;;;;;5040992;28;20061;-69
2021/12/25 01:48:51;;;;;;;28.05;12.93;;;2.40;99.90;;;;;;5035023;28;20083;-69
2021/12/25 01:51:17;;;;;;;59.80;38.05;;;2.40;99.90;;;;;;5037295;28;20029;-73
2021/12/25 01:53:43;;;;;;;36.88;16.40;;;2.40;99.90;;;;;;5032539;28;20113;-71
2021/12/25 01:56:08;;;;;;;47.03;21.83;;;2.50;99.90;;;;;;5036776;28;20025;-66
2021/12/25 01:58:35;;;;;;;58.25;21.02;;;2.50;99.90;;;;;;5049830;28;20029;-70
2021/12/25 02:01:03;;;;;;;82.07;34.13;;;2.50;99.90;;;;;;5043586;28;20040;-73
2021/12/25 02:03:30;;;;;;;53.83;20.25;;;2.50;99.90;;;;;;5041498;28;20063;-68
2021/12/25 02:05:57;;;;;;;100.50;57.58;;;2.60;99.90;;;;;;5043701;28;20460;-73
2021/12/25 02:08:24;;;;;;;30.13;15.07;;;2.60;99.90;;;;;;5043270;28;20113;-67
2021/12/25 02:10:50;;;;;;;66.50;40.67;;;2.70;99.90;;;;;;5042255;28;20037;-70
2021/12/25 02:13:17;;;;;;;33.85;15.48;;;2.70;99.90;;;;;;5038014;28;20054;-71
2021/12/25 02:15:46;;;;;;;48.78;19.83;;;2.80;99.90;;;;;;5036893;28;20109;-69
2021/12/25 02:18:19;;;;;;;95.05;55.53;;;2.80;99.90;;;;;;5054130;28;20029;-70
2021/12/25 02:21:32;;;;;;;43.53;17.88;;;2.80;99.90;;;;;;5052934;28;20025;-69
2021/12/25 02:23:35;;;;;;;40.17;22.48;;;2.90;99.90;;;;;;5039593;28;20041;-69
2021/12/25 02:26:01;;;;;;;116.18;67.22;;;2.90;99.90;;;;;;5035989;28;20038;-71
2021/12/25 02:28:27;;;;;;;130.35;72.88;;;2.90;99.90;;;;;;5034681;28;20029;-69
2021/12/25 02:30:56;;;;;;;68.68;28.35;;;3.00;99.90;;;;;;5045409;28;20106;-70
2021/12/25 02:33:24;;;;;;;54.88;24.40;;;3.00;99.90;;;;;;5045210;28;20021;-74
2021/12/25 02:35:50;;;;;;;59.80;23.25;;;3.00;99.90;;;;;;5047010;28;20119;-70
2021/12/25 02:38:16;;;;;;;124.65;71.15;;;3.00;99.90;;;;;;5040597;28;20460;-71
2021/12/25 02:40:42;;;;;;;99.22;35.00;;;3.00;99.90;;;;;;5036239;28;20036;-71
2021/12/25 02:43:08;;;;;;;82.18;29.27;;;3.00;99.90;;;;;;5036427;28;20067;-70
2021/12/25 02:45:34;;;;;;;143.98;78.47;;;3.00;99.90;;;;;;5051484;28;20096;-69
2021/12/25 02:48:09;;;;;;;53.15;20.60;;;3.10;99.90;;;;;;5035608;28;20059;-74
2021/12/25 02:50:37;;;;;;;137.13;76.18;;;3.10;99.90;;;;;;5043856;28;20057;-70
2021/12/25 02:53:05;;;;;;;121.60;68.10;;;3.10;99.90;;;;;;5038800;28;20029;-68
2021/12/25 02:55:31;;;;;;;30.33;15.57;;;3.10;99.90;;;;;;5039362;28;20104;-67
2021/12/25 02:57:57;;;;;;;92.72;54.05;;;3.20;99.90;;;;;;5047704;28;20112;-69
2021/12/25 03:00:29;;;;;;;30.67;13.90;;;3.20;99.90;;;;;;5039154;28;20053;-73
2021/12/25 03:02:57;;;;;;;94.35;53.25;;;3.20;99.90;;;;;;5040351;28;20037;-70
2021/12/25 03:05:24;;;;;;;57.13;24.30;;;3.20;99.90;;;;;;5043178;28;20022;-71
2021/12/25 03:07:50;;;;;;;55.72;24.88;;;3.30;99.90;;;;;;5050799;28;20026;-74
2021/12/25 03:10:17;;;;;;;105.97;57.65;;;3.30;99.70;;;;;;5035590;28;20037;-67
2021/12/25 03:12:53;;;;;;;60.25;22.75;;;3.40;99.90;;;;;;5043742;28;20147;-68
2021/12/25 03:15:29;;;;;;;124.03;67.45;;;3.40;99.60;;;;;;5044039;28;20556;-74
2021/12/25 03:17:57;;;;;;;63.33;25.75;;;3.40;99.70;;;;;;5037084;28;20483;-70
2021/12/25 03:20:23;;;;;;;49.35;23.05;;;3.50;99.30;;;;;;5034183;28;20037;-67
2021/12/25 03:22:50;;;;;;;100.22;56.85;;;3.50;99.10;;;;;;5049617;28;20041;-70
2021/12/25 03:25:16;;;;;;;62.03;25.65;;;3.50;99.50;;;;;;5046721;28;20030;-68
2021/12/25 03:27:45;;;;;;;124.20;69.30;;;3.50;99.00;;;;;;5045366;28;20044;-71
2021/12/25 03:30:15;;;;;;;75.50;29.00;;;3.50;99.30;;;;;;5045693;28;20037;-70
2021/12/25 03:32:41;;;;;;;36.55;17.15;;;3.60;98.90;;;;;;5043602;28;20025;-68
2021/12/25 03:35:07;;;;;;;110.93;58.38;;;3.60;98.90;;;;;;5037800;28;20026;-70
2021/12/25 03:37:32;;;;;;;73.75;40.70;;;3.60;99.20;;;;;;5050210;28;20029;-70
2021/12/25 03:39:58;;;;;;;26.88;12.48;;;3.60;99.00;;;;;;5042962;28;20057;-70
2021/12/25 03:42:24;;;;;;;22.98;10.88;;;3.70;98.50;;;;;;5043010;28;20045;-70
2021/12/25 03:44:50;;;;;;;41.15;29.15;;;3.70;98.50;;;;;;5050155;28;20087;-71
2021/12/25 03:47:29;;;;;;;34.63;14.32;;;3.70;98.80;;;;;;5044379;28;20025;-69
2021/12/25 03:58:31;;;;;;;30.42;22.73;;;3.80;98.30;;;;;;5043833;28;20122;-71
2021/12/25 04:01:02;;;;;;;19.13;10.23;;;3.80;98.10;;;;;;5044770;28;20055;-67
2021/12/25 04:06:25;;;;;;;26.48;20.02;;;3.90;97.80;;;;;;5044047;28;20029;-66
2021/12/25 04:08:52;;;;;;;20.63;8.75;;;3.90;98.10;;;;;;5031878;28;20048;-69
2021/12/25 04:11:27;;;;;;;28.05;19.35;;;3.90;97.70;;;;;;5043112;28;20436;-68
2021/12/25 04:13:54;;;;;;;22.92;18.05;;;3.90;97.80;;;;;;5041474;28;20360;-69
2021/12/25 04:16:20;;;;;;;22.50;11.75;;;4.00;97.40;;;;;;5042097;28;20033;-69
2021/12/25 04:18:45;;;;;;;13.48;7.22;;;4.00;97.10;;;;;;5042267;28;20376;-69
2021/12/25 04:21:11;;;;;;;17.20;8.43;;;4.00;97.00;;;;;;5044441;28;20029;-66
2021/12/25 04:23:40;;;;;;;20.52;8.98;;;4.00;97.10;;;;;;5045127;28;20025;-68
2021/12/25 04:26:07;;;;;;;26.08;20.10;;;4.00;97.00;;;;;;5046448;28;20025;-70
2021/12/25 04:28:41;;;;;;;23.33;19.15;;;4.00;97.00;;;;;;5048229;28;20030;-72
2021/12/25 04:48:02;;;;;;;16.67;9.25;;;4.10;95.60;;;;;;5047179;28;20106;-67
2021/12/25 05:04:05;;;;;;;10.32;6.00;;;4.10;96.00;;;;;;5038938;28;21494;-69
2021/12/25 05:06:30;;;;;;;23.67;17.77;;;4.10;95.80;;;;;;5037072;28;20117;-69
2021/12/25 05:08:56;;;;;;;25.05;18.35;;;4.10;96.00;;;;;;5041531;28;20112;-69
2021/12/25 05:11:22;;;;;;;13.77;6.80;;;4.20;95.50;;;;;;5046634;28;20025;-68
2021/12/25 05:13:50;;;;;;;27.77;19.63;;;4.20;95.10;;;;;;5042267;28;20035;-68
2021/12/25 05:16:19;;;;;;;18.35;8.98;;;4.20;95.40;;;;;;5041665;28;20463;-68
2021/12/25 05:18:45;;;;;;;28.15;19.13;;;4.20;95.10;;;;;;5040850;28;20439;-70
2021/12/25 05:21:13;;;;;;;29.25;18.58;;;4.20;95.40;;;;;;5044519;28;20056;-71
2021/12/25 05:23:40;;;;;;;33.03;20.83;;;4.20;95.20;;;;;;5041166;28;20041;-70
2021/12/25 05:26:06;;;;;;;31.27;20.35;;;4.20;95.10;;;;;;5035354;28;20033;-70
2021/12/25 05:28:58;;;;;;;17.33;8.32;;;4.20;94.90;;;;;;5047487;28;20029;-70
2021/12/25 05:31:20;;;;;;;14.50;7.03;;;4.30;94.70;;;;;;5038710;28;20104;-70
2021/12/25 05:33:46;;;;;;;24.63;17.52;;;4.20;95.00;;;;;;5044230;28;20105;-70
2021/12/25 05:36:12;;;;;;;25.42;17.88;;;4.20;95.40;;;;;;5040844;28;20120;-73
2021/12/25 05:38:37;;;;;;;16.65;8.77;;;4.30;95.20;;;;;;5044923;28;20025;-67
2021/12/25 05:41:04;;;;;;;15.60;6.75;;;4.20;94.90;;;;;;5044967;28;20097;-66
2021/12/25 05:43:29;;;;;;;18.90;15.10;;;4.20;95.30;;;;;;5039282;28;20041;-69
2021/12/25 05:45:55;;;;;;;20.50;16.02;;;4.30;95.50;;;;;;5045979;28;20025;-70
2021/12/25 05:48:21;;;;;;;23.70;16.27;;;4.30;95.20;;;;;;5055847;28;20025;-69
2021/12/25 05:50:47;;;;;;;19.73;15.57;;;4.40;94.90;;;;;;5041992;28;20048;-69
2021/12/25 05:53:13;;;;;;;23.77;17.00;;;4.40;94.50;;;;;;5040695;28;20120;-70
2021/12/25 05:55:39;;;;;;;21.35;16.00;;;4.40;94.30;;;;;;5049934;28;20032;-70
2021/12/25 05:58:07;;;;;;;19.58;15.55;;;4.40;94.10;;;;;;5043392;28;20463;-72
2021/12/25 06:00:34;;;;;;;20.70;14.73;;;4.50;94.10;;;;;;5045499;28;20022;-71
2021/12/25 06:03:00;;;;;;;10.65;5.47;;;4.50;93.90;;;;;;5046552;28;20091;-71
2021/12/25 06:05:26;;;;;;;18.58;14.75;;;4.50;93.80;;;;;;5047327;28;20079;-73
2021/12/25 06:07:52;;;;;;;19.23;15.20;;;4.50;94.10;;;;;;5044482;28;20075;-69
2021/12/25 06:10:18;;;;;;;18.40;7.70;;;4.50;94.00;;;;;;5044171;28;20029;-75
2021/12/25 06:12:47;;;;;;;20.23;15.63;;;4.50;93.80;;;;;;5039660;28;20051;-74
2021/12/25 06:15:14;;;;;;;23.00;15.38;;;4.50;94.00;;;;;;5046571;28;20051;-69
2021/12/25 06:17:40;;;;;;;13.82;7.13;;;4.50;93.80;;;;;;5044184;28;20434;-70
2021/12/25 06:20:07;;;;;;;15.00;8.18;;;4.50;93.60;;;;;;5044495;28;20031;-71
2021/12/25 06:22:33;;;;;;;20.58;15.90;;;4.50;93.80;;;;;;5044065;28;20045;-71
2021/12/25 06:24:59;;;;;;;23.58;16.63;;;4.60;94.10;;;;;;5044182;28;20572;-70
2021/12/25 06:27:24;;;;;;;22.35;17.02;;;4.60;93.90;;;;;;5045296;28;20026;-69
2021/12/25 06:29:51;;;;;;;22.65;15.95;;;4.60;93.60;;;;;;5047365;28;20033;-69
2021/12/25 06:32:18;;;;;;;17.52;8.07;;;4.70;93.40;;;;;;5042011;28;20037;-69
2021/12/25 06:34:44;;;;;;;20.40;14.98;;;4.70;93.40;;;;;;5042853;28;20033;-66
2021/12/25 06:37:10;;;;;;;20.52;15.68;;;4.70;93.60;;;;;;5043851;28;20025;-70
2021/12/25 06:39:38;;;;;;;22.35;16.90;;;4.70;93.50;;;;;;5043807;28;20037;-69
2021/12/25 06:42:04;;;;;;;27.52;19.25;;;4.70;93.50;;;;;;5042232;28;20044;-71
2021/12/25 06:44:29;;;;;;;19.95;9.55;;;4.70;93.20;;;;;;5046586;28;20028;-74
2021/12/25 06:46:56;;;;;;;25.00;19.55;;;4.80;93.00;;;;;;5045123;28;20383;-71
2021/12/25 06:49:23;;;;;;;23.25;17.58;;;4.70;93.20;;;;;;5038546;28;20029;-74
2021/12/25 06:51:50;;;;;;;22.23;10.15;;;4.70;93.20;;;;;;5043774;28;20429;-67
2021/12/25 06:54:16;;;;;;;25.48;19.88;;;4.70;93.20;;;;;;5053280;28;20152;-67
2021/12/25 06:56:43;;;;;;;31.42;23.45;;;4.70;93.50;;;;;;5042452;28;20052;-65
2021/12/25 06:59:10;;;;;;;24.95;19.42;;;4.70;93.40;;;;;;5036814;28;20041;-68
2021/12/25 07:01:36;;;;;;;24.77;18.50;;;4.70;93.30;;;;;;5043413;28;20046;-72
2021/12/25 07:04:03;;;;;;;25.40;19.52;;;4.70;93.20;;;;;;5035993;28;20033;-67
2021/12/25 07:06:29;;;;;;;33.15;24.60;;;4.70;93.00;;;;;;5040529;28;20487;-67
2021/12/25 07:08:55;;;;;;;24.85;12.48;;;4.70;93.00;;;;;;5044228;28;20096;-70
2021/12/25 07:11:21;;;;;;;30.33;24.42;;;4.70;93.00;;;;;;5054197;28;20504;-70
2021/12/25 07:13:47;;;;;;;20.25;10.88;;;4.70;93.30;;;;;;5049797;28;20033;-69
2021/12/25 07:16:13;;;;;;;22.48;18.73;;;4.80;93.30;;;;;;5047084;28;20021;-69
2021/12/25 07:18:40;;;;;;;22.38;18.33;;;4.80;93.70;;;;;;5054262;28;20025;-70
2021/12/25 07:21:06;;;;;;;19.92;10.02;;;4.90;93.80;;;;;;5036789;28;20379;-72
2021/12/25 07:23:32;;;;;;;28.85;21.88;;;5.00;93.50;;;;;;5061553;28;20029;-70
2021/12/25 07:25:59;;;;;;;30.38;21.88;;;5.00;93.60;;;;;;5075085;28;20560;-70
2021/12/25 07:28:26;;;;;;;24.27;18.60;;;5.20;93.20;;;;;;5072594;28;20490;-70
2021/12/25 07:30:52;;;;;;;21.20;16.45;;;5.30;92.70;;;;;;5040024;28;20088;-67
2021/12/25 07:33:19;;;;;;;23.45;16.40;;;5.40;92.10;;;;;;5035361;28;20033;-66
2021/12/25 07:35:44;;;;;;;26.20;19.55;;;5.40;91.50;;;;;;5052104;28;20083;-67
2021/12/25 07:38:10;;;;;;;26.98;19.65;;;5.40;91.00;;;;;;5053825;28;20032;-70
2021/12/25 07:40:36;;;;;;;30.00;21.88;;;5.40;90.70;;;;;;5058595;28;20036;-79
2021/12/25 07:43:03;;;;;;;28.23;20.40;;;5.40;90.70;;;;;;5036409;28;20033;-68
2021/12/25 07:45:29;;;;;;;29.80;20.88;;;5.30;90.80;;;;;;5045672;28;20025;-71
2021/12/25 07:48:00;;;;;;;25.75;18.35;;;5.30;90.90;;;;;;5052578;28;20037;-68
2021/12/25 07:50:30;;;;;;;26.50;18.95;;;5.30;90.90;;;;;;5047945;28;20079;-73
2021/12/25 07:52:56;;;;;;;18.10;12.57;;;5.20;90.90;;;;;;5053870;28;20082;-68
2021/12/25 07:55:22;;;;;;;9.40;7.20;;;5.20;90.10;;;;;;5063815;28;20029;-71
2021/12/25 07:57:48;;;;;;;8.10;5.32;;;5.20;87.80;;;;;;5037120;28;20372;-70
2021/12/25 08:00:16;;;;;;;7.05;4.88;;;5.20;85.60;;;;;;5036911;28;20108;-73
2021/12/25 08:02:44;;;;;;;5.05;3.88;;;5.20;83.80;;;;;;5063644;28;20033;-73
2021/12/25 08:05:10;;;;;;;4.78;2.47;;;5.20;81.90;;;;;;5051553;28;20533;-72
2021/12/25 08:07:37;;;;;;;6.05;4.35;;;5.30;82.70;;;;;;5070500;28;20025;-77
2021/12/25 08:10:13;;;;;;;6.10;4.45;;;5.40;82.40;;;;;;5052435;28;20120;-71
2021/12/25 08:12:48;;;;;;;6.57;4.43;;;5.40;81.20;;;;;;5054602;28;20055;-72
2021/12/25 08:15:16;;;;;;;6.97;4.97;;;5.50;80.10;;;;;;5044266;28;20082;-68
2021/12/25 08:17:42;;;;;;;6.82;4.80;;;5.40;79.70;;;;;;5046534;28;20108;-78
2021/12/25 08:20:10;;;;;;;6.57;4.47;;;5.40;79.40;;;;;;5042570;28;20490;-68
2021/12/25 08:22:36;;;;;;;6.93;4.88;;;5.20;78.90;;;;;;5054765;28;20041;-75
2021/12/25 08:25:03;;;;;;;6.70;4.90;;;5.20;79.10;;;;;;5048015;28;20371;-74
2021/12/25 08:27:29;;;;;;;7.10;4.82;;;5.10;79.20;;;;;;5048687;28;20037;-70
2021/12/25 08:29:55;;;;;;;6.68;4.70;;;5.10;79.20;;;;;;5051538;28;20029;-75
2021/12/25 08:32:21;;;;;;;8.07;5.22;;;5.00;78.90;;;;;;5048532;28;20028;-78
2021/12/25 08:34:47;;;;;;;7.93;5.47;;;5.00;78.90;;;;;;5042107;28;20475;-77
2021/12/25 08:37:12;;;;;;;7.30;5.38;;;5.00;79.10;;;;;;5039439;28;20022;-76
2021/12/25 08:39:38;;;;;;;9.45;6.53;;;4.90;78.70;;;;;;5044659;28;20025;-75
2021/12/25 08:42:05;;;;;;;9.23;6.75;;;4.90;78.50;;;;;;5044437;28;20467;-75
2021/12/25 08:44:39;;;;;;;9.02;6.93;;;4.90;78.70;;;;;;5045304;28;20033;-71
2021/12/25 08:47:08;;;;;;;8.23;5.47;;;4.90;78.10;;;;;;5049239;28;20386;-73
2021/12/25 08:49:36;;;;;;;9.20;5.90;;;4.90;78.00;;;;;;5047287;28;20029;-75
2021/12/25 08:52:12;;;;;;;7.90;5.70;;;5.00;77.50;;;;;;5062599;28;20422;-75
2021/12/25 08:54:38;;;;;;;6.57;5.35;;;5.10;77.10;;;;;;5046090;28;20036;-73
2021/12/25 08:57:05;;;;;;;6.93;4.95;;;5.20;76.80;;;;;;5037192;28;20029;-74
2021/12/25 08:59:33;;;;;;;5.15;2.67;;;5.20;76.10;;;;;;5035168;28;20148;-71
2021/12/25 09:01:59;;;;;;;7.35;5.13;;;5.30;76.20;;;;;;5047234;28;20455;-76
2021/12/25 09:04:25;;;;;;;5.43;3.17;;;5.30;75.70;;;;;;5049152;28;20030;-79
2021/12/25 09:06:51;;;;;;;6.95;5.10;;;5.40;75.90;;;;;;5041385;28;20074;-77
2021/12/25 09:09:16;;;;;;;9.05;5.47;;;5.50;75.40;;;;;;5043611;28;20368;-76
2021/12/25 09:11:42;;;;;;;7.90;5.60;;;5.60;74.20;;;;;;5054972;28;20049;-78
2021/12/25 09:14:08;;;;;;;8.23;5.45;;;5.70;73.40;;;;;;5047435;28;20391;-76
2021/12/25 09:16:33;;;;;;;8.75;5.80;;;5.80;72.50;;;;;;5046651;28;20388;-80
2021/12/25 09:18:59;;;;;;;7.57;5.40;;;5.80;72.00;;;;;;5041395;28;20123;-84
2021/12/25 09:21:25;;;;;;;8.23;5.15;;;5.80;71.60;;;;;;5044853;28;20078;-81
2021/12/25 09:23:51;;;;;;;6.82;4.82;;;5.70;71.30;;;;;;5040243;28;20029;-78
2021/12/25 09:26:17;;;;;;;6.63;4.97;;;5.70;71.40;;;;;;5051473;28;20036;-75
2021/12/25 09:28:44;;;;;;;6.90;2.90;;;5.80;71.40;;;;;;5057678;28;20040;-75
2021/12/25 09:31:10;;;;;;;7.10;5.55;;;5.80;72.20;;;;;;5039244;28;20372;-75
2021/12/25 09:33:35;;;;;;;7.80;5.20;;;5.80;72.20;;;;;;5042976;28;20079;-76
2021/12/25 09:36:04;;;;;;;8.75;6.00;;;5.90;72.10;;;;;;5049604;28;20025;-78
2021/12/25 09:38:31;;;;;;;10.00;7.18;;;5.90;72.00;;;;;;5034597;28;20026;-75
2021/12/25 09:40:57;;;;;;;9.60;6.70;;;6.00;72.10;;;;;;5040972;28;20033;-77
2021/12/25 09:43:24;;;;;;;10.32;7.28;;;6.00;72.10;;;;;;5039548;28;20465;-73
2021/12/25 09:45:50;;;;;;;12.50;8.07;;;6.10;72.20;;;;;;5046534;28;20078;-74
2021/12/25 09:48:16;;;;;;;13.88;8.90;;;6.10;72.20;;;;;;5051057;28;20390;-75
2021/12/25 09:50:41;;;;;;;13.32;8.65;;;6.00;71.60;;;;;;5042550;28;20025;-73
2021/12/25 09:53:10;;;;;;;12.43;8.27;;;6.00;71.10;;;;;;5053016;28;20122;-74
2021/12/25 09:55:38;;;;;;;12.88;6.93;;;5.90;70.30;;;;;;5034180;28;20523;-74
2021/12/25 09:58:04;;;;;;;9.25;5.60;;;5.80;69.70;;;;;;5052209;28;20029;-80
2021/12/25 10:00:30;;;;;;;8.57;6.45;;;5.80;69.30;;;;;;5045131;28;20025;-80
2021/12/25 10:02:57;;;;;;;8.93;6.65;;;5.70;69.10;;;;;;5049114;28;20500;-75
2021/12/25 10:05:38;;;;;;;10.52;7.88;;;5.70;69.00;;;;;;5040054;28;20037;-81
2021/12/25 10:08:18;;;;;;;11.38;7.78;;;5.60;68.90;;;;;;5044036;28;20020;-75
2021/12/25 10:10:46;;;;;;;11.52;7.65;;;5.50;68.90;;;;;;5042999;28;20037;-77
2021/12/25 10:13:17;;;;;;;12.27;8.00;;;5.50;69.10;;;;;;5061396;28;20620;-82
2021/12/25 10:15:43;;;;;;;10.02;7.10;;;5.40;68.70;;;;;;5048127;28;20400;-78
2021/12/25 10:18:09;;;;;;;10.73;7.82;;;5.20;68.80;;;;;;5059136;28;20039;-79
2021/12/25 10:20:35;;;;;;;10.38;7.70;;;5.10;69.00;;;;;;5053731;28;20164;-81
2021/12/25 10:23:13;;;;;;;14.70;8.73;;;5.10;69.30;;;;;;5055541;28;20426;-80
2021/12/25 10:25:55;;;;;;;14.27;9.23;;;5.10;69.50;;;;;;5047143;28;20464;-76
2021/12/25 10:28:32;;;;;;;11.40;8.45;;;5.10;69.70;;;;;;5049287;28;20482;-77
2021/12/25 10:31:13;;;;;;;14.77;9.90;;;5.10;69.30;;;;;;5052029;28;20021;-82
2021/12/25 10:33:50;;;;;;;13.95;10.05;;;5.10;69.40;;;;;;5049879;28;20029;-80
2021/12/25 10:36:34;;;;;;;9.05;4.20;;;5.00;69.60;;;;;;5053286;28;20032;-80
2021/12/25 10:39:06;;;;;;;12.70;8.20;;;5.00;70.10;;;;;;5052266;28;20091;-79
2021/12/25 10:41:35;;;;;;;10.38;7.50;;;4.90;70.10;;;;;;5052337;28;20449;-79
2021/12/25 10:44:16;;;;;;;10.30;7.72;;;5.00;70.20;;;;;;5068256;28;20025;-81
2021/12/25 10:46:51;;;;;;;11.43;8.48;;;5.00;69.70;;;;;;5041045;28;20025;-81
2021/12/25 10:49:17;;;;;;;12.75;8.27;;;5.00;69.90;;;;;;5054142;28;20029;-81
2021/12/25 10:51:43;;;;;;;13.50;8.77;;;5.10;69.90;;;;;;5041650;28;20065;-79
2021/12/25 10:54:12;;;;;;;12.35;8.52;;;5.10;69.80;;;;;;5046579;28;20045;-80
2021/12/25 10:56:40;;;;;;;13.38;9.00;;;5.10;69.80;;;;;;5041100;28;20033;-77
2021/12/25 10:59:13;;;;;;;11.93;8.95;;;5.10;69.70;;;;;;5036019;28;20033;-80
2021/12/25 11:01:47;;;;;;;12.52;8.88;;;5.10;69.70;;;;;;5043305;28;20025;-74
2021/12/25 11:04:36;;;;;;;11.57;8.38;;;5.10;69.50;;;;;;5039203;28;20029;-75
2021/12/25 11:07:14;;;;;;;11.48;8.73;;;5.20;69.70;;;;;;5046137;28;20033;-81
2021/12/25 11:09:39;;;;;;;14.52;10.52;;;5.30;69.90;;;;;;5042104;28;20033;-80
2021/12/25 11:12:20;;;;;;;15.95;12.40;;;5.40;70.00;;;;;;5048149;28;20056;-80
2021/12/25 11:14:48;;;;;;;12.15;10.23;;;5.60;69.70;;;;;;5049318;28;20061;-82
2021/12/25 11:17:22;;;;;;;13.70;9.73;;;5.60;69.20;;;;;;5050186;28;20045;-80
2021/12/25 11:19:59;;;;;;;12.55;9.05;;;5.60;68.80;;;;;;5055376;28;20065;-81
2021/12/25 11:22:25;;;;;;;12.85;9.48;;;5.60;68.60;;;;;;5074485;28;20155;-74
2021/12/25 11:24:53;;;;;;;11.57;8.80;;;5.50;68.70;;;;;;5059766;28;20079;-75
2021/12/25 11:27:20;;;;;;;11.82;8.60;;;5.40;68.80;;;;;;5054915;28;20485;-79
2021/12/25 11:29:46;;;;;;;11.68;8.98;;;5.40;68.90;;;;;;5061191;28;20031;-80
2021/12/25 11:32:12;;;;;;;12.65;9.52;;;5.30;68.90;;;;;;5038899;28;20033;-79
2021/12/25 11:34:38;;;;;;;13.57;10.73;;;5.30;69.00;;;;;;5046361;28;20025;-80
2021/12/25 11:37:05;;;;;;;15.40;11.00;;;5.30;69.80;;;;;;5050854;28;20029;-77
2021/12/25 11:39:34;;;;;;;13.18;10.18;;;5.30;69.20;;;;;;5035686;28;20029;-77
2021/12/25 11:42:08;;;;;;;14.90;10.77;;;5.30;69.90;;;;;;5038484;28;20065;-80
2021/12/25 11:44:44;;;;;;;14.60;9.90;;;5.20;69.10;;;;;;5045208;28;20472;-74
2021/12/25 11:47:40;;;;;;;13.52;8.90;;;5.20;69.00;;;;;;5041307;28;20091;-81
2021/12/25 11:50:14;;;;;;;9.30;5.03;;;5.00;69.30;;;;;;5045318;28;20095;-77
2021/12/25 11:52:55;;;;;;;11.18;4.47;;;5.00;69.80;;;;;;5054065;28;20037;-79
2021/12/25 11:58:42;;;;;;;14.98;10.90;;;4.80;70.40;;;;;;5050006;28;20036;-80
2021/12/25 12:01:38;;;;;;;13.63;9.30;;;4.90;70.40;;;;;;5043845;28;20386;-80
2021/12/25 12:04:10;;;;;;;9.43;5.28;;;4.80;69.80;;;;;;5033460;28;20037;-79
2021/12/25 12:06:47;;;;;;;14.27;10.18;;;4.80;70.20;;;;;;5037793;28;20029;-73
2021/12/25 12:09:15;;;;;;;14.60;10.80;;;4.70;70.30;;;;;;5049282;28;20090;-82
2021/12/25 12:11:43;;;;;;;14.48;9.75;;;4.80;70.50;;;;;;5052218;28;20070;-81
2021/12/25 12:14:21;;;;;;;9.68;4.97;;;4.70;70.10;;;;;;5053252;28;20041;-81
2021/12/25 12:16:56;;;;;;;12.38;9.20;;;4.60;70.10;;;;;;5039849;28;20402;-75
2021/12/25 12:19:38;;;;;;;13.60;9.50;;;4.50;70.50;;;;;;5040779;28;20021;-82
2021/12/25 12:22:19;;;;;;;13.65;9.60;;;4.40;70.80;;;;;;5041001;28;20041;-77
2021/12/25 12:25:14;;;;;;;10.40;4.82;;;4.30;71.30;;;;;;5048480;28;20052;-82
2021/12/25 12:27:57;;;;;;;13.50;9.90;;;4.20;71.60;;;;;;5036292;28;20029;-75
2021/12/25 12:30:31;;;;;;;14.05;10.00;;;4.00;72.70;;;;;;5042675;28;20021;-77
2021/12/25 12:33:02;;;;;;;15.70;11.55;;;3.90;73.00;;;;;;5033705;28;20399;-77
2021/12/25 12:35:38;;;;;;;17.10;11.63;;;3.90;73.40;;;;;;5039188;28;20089;-79
2021/12/25 12:38:38;;;;;;;16.10;12.00;;;3.80;73.80;;;;;;5052671;28;20029;-77
2021/12/25 12:41:34;;;;;;;18.02;12.68;;;3.70;74.60;;;;;;5041216;28;20021;-81
2021/12/25 12:44:15;;;;;;;14.50;10.88;;;3.70;75.10;;;;;;5054621;28;20102;-77
2021/12/25 12:47:03;;;;;;;13.73;5.72;;;3.60;75.60;;;;;;5044316;28;20057;-74
2021/12/25 12:49:33;;;;;;;14.65;11.23;;;3.50;75.60;;;;;;5057208;28;20074;-79
2021/12/25 12:52:19;;;;;;;12.32;5.55;;;3.40;76.40;;;;;;5039064;28;20479;-77
2021/12/25 12:54:55;;;;;;;14.48;11.05;;;3.30;76.50;;;;;;5045122;28;20025;-79
2021/12/25 12:57:38;;;;;;;14.40;11.07;;;3.20;78.40;;;;;;5064508;28;20059;-83
2021/12/25 13:00:22;;;;;;;11.45;5.43;;;3.10;79.40;;;;;;5039096;28;20029;-76
2021/12/25 13:02:54;;;;;;;14.15;6.10;;;3.00;79.40;;;;;;5033196;28;20030;-77
2021/12/25 13:05:31;;;;;;;17.00;13.27;;;2.90;79.60;;;;;;5036286;28;20033;-81
2021/12/25 13:07:58;;;;;;;14.73;11.20;;;2.90;81.50;;;;;;5032372;28;20029;-82
2021/12/25 13:10:42;;;;;;;16.33;11.68;;;2.80;82.40;;;;;;5045820;28;20021;-82
2021/12/25 13:13:28;;;;;;;10.70;5.20;;;2.80;83.40;;;;;;5046652;28;20448;-80
2021/12/25 13:16:00;;;;;;;16.30;6.15;;;2.70;82.80;;;;;;5047165;28;20056;-78
2021/12/25 13:18:30;;;;;;;11.32;5.63;;;2.70;82.90;;;;;;5053066;28;20459;-79
2021/12/25 13:20:56;;;;;;;12.90;6.20;;;2.60;82.90;;;;;;5046494;28;20427;-74
2021/12/25 13:23:22;;;;;;;14.02;5.47;;;2.60;83.10;;;;;;5038671;28;20087;-79
2021/12/25 13:26:00;;;;;;;19.05;13.15;;;2.60;83.10;;;;;;5054471;28;20029;-79
2021/12/25 13:28:29;;;;;;;20.67;14.90;;;2.60;84.20;;;;;;5035023;28;20040;-79
2021/12/25 13:31:18;;;;;;;19.90;15.75;;;2.70;84.60;;;;;;5033831;28;20029;-76
2021/12/25 13:33:50;;;;;;;19.10;14.13;;;2.70;84.90;;;;;;5047138;28;20029;-81
2021/12/25 13:36:20;;;;;;;17.85;13.50;;;2.80;85.00;;;;;;5033720;28;20432;-81
2021/12/25 13:39:16;;;;;;;17.77;6.97;;;2.80;84.90;;;;;;5033402;28;20029;-85
2021/12/25 13:41:49;;;;;;;18.80;8.40;;;2.90;84.20;;;;;;5040343;28;20107;-75
2021/12/25 13:44:22;;;;;;;17.17;8.73;;;2.80;83.60;;;;;;5044006;28;20041;-81
2021/12/25 13:46:50;;;;;;;25.27;18.17;;;2.70;83.60;;;;;;5041135;28;20037;-83
2021/12/25 13:49:38;;;;;;;17.52;7.53;;;2.70;84.40;;;;;;5049376;28;20053;-85
2021/12/25 13:52:24;;;;;;;14.95;7.55;;;2.60;84.30;;;;;;5042277;28;20037;-84
2021/12/25 13:55:01;;;;;;;22.30;17.92;;;2.60;84.20;;;;;;5034013;28;20041;-84
2021/12/25 13:57:29;;;;;;;16.05;8.98;;;2.60;85.00;;;;;;5034583;28;20071;-76
2021/12/25 14:00:02;;;;;;;25.02;19.42;;;2.60;84.60;;;;;;5048594;28;20116;-79
2021/12/25 14:02:29;;;;;;;25.95;19.42;;;2.50;85.30;;;;;;5051636;28;20056;-79
2021/12/25 14:04:56;;;;;;;22.10;10.27;;;2.50;85.50;;;;;;5040236;28;20037;-74
2021/12/25 14:07:30;;;;;;;28.20;19.60;;;2.50;85.30;;;;;;5043870;28;20068;-83